sensor_id;sensor_type;location;lat;lon;timestamp;P1;durP1;ratioP1;P2;durP2;ratioP2
52786;SDS011;38661;53.152;5.846;2024-02-26T00:02:02;20.25;;;12.85;;
52786;SDS011;38661;53.152;5.846;2024-02-26T00:04:28;20.63;;;13.40;;
52786;SDS011;38661;53.152;5.846;2024-02-26T00:06:53;19.45;;;12.98;;
52786;SDS011;38661;53.152;5.846;2024-02-26T00:09:20;16.35;;;11.25;;
52786;SDS011;38661;53.152;5.846;2024-02-26T00:11:46;17.77;;;11.35;;
52786;SDS011;38661;53.152;5.846;2024-02-26T00:14:11;18.17;;;12.23;;
52786;SDS011;38661;53.152;5.846;2024-02-26T00:16:39;15.35;;;10.75;;
52786;SDS011;38661;53.152;5.846;2024-02-26T00:19:06;15.57;;;10.98;;
52786;SDS011;38661;53.152;5.846;2024-02-26T00:21:32;15.40;;;10.52;;
52786;SDS011;38661;53.152;5.846;2024-02-26T00:23:58;15.25;;;10.38;;
52786;SDS011;38661;53.152;5.846;2024-02-26T00:26:23;16.20;;;10.82;;
52786;SDS011;38661;53.152;5.846;2024-02-26T00:28:49;14.88;;;10.90;;
52786;SDS011;38661;53.152;5.846;2024-02-26T00:31:15;15.38;;;10.60;;
52786;SDS011;38661;53.152;5.846;2024-02-26T00:33:40;14.10;;;10.15;;
52786;SDS011;38661;53.152;5.846;2024-02-26T00:36:06;16.02;;;10.65;;
52786;SDS011;38661;53.152;5.846;2024-02-26T00:38:32;16.20;;;11.05;;
52786;SDS011;38661;53.152;5.846;2024-02-26T00:40:58;14.23;;;9.93;;
52786;SDS011;38661;53.152;5.846;2024-02-26T00:43:23;16.30;;;10.02;;
52786;SDS011;38661;53.152;5.846;2024-02-26T00:45:49;15.93;;;10.00;;
52786;SDS011;38661;53.152;5.846;2024-02-26T00:48:17;13.43;;;9.95;;
52786;SDS011;38661;53.152;5.846;2024-02-26T00:50:42;13.82;;;9.88;;
52786;SDS011;38661;53.152;5.846;2024-02-26T00:53:08;12.20;;;8.52;;
52786;SDS011;38661;53.152;5.846;2024-02-26T00:55:33;13.05;;;9.00;;
52786;SDS011;38661;53.152;5.846;2024-02-26T00:57:59;12.52;;;9.40;;
52786;SDS011;38661;53.152;5.846;2024-02-26T01:00:25;13.13;;;9.65;;
52786;SDS011;38661;53.152;5.846;2024-02-26T01:02:50;11.40;;;8.00;;
52786;SDS011;38661;53.152;5.846;2024-02-26T01:05:16;13.25;;;8.55;;
52786;SDS011;38661;53.152;5.846;2024-02-26T01:07:42;11.65;;;7.90;;
52786;SDS011;38661;53.152;5.846;2024-02-26T01:10:08;11.40;;;8.35;;
52786;SDS011;38661;53.152;5.846;2024-02-26T01:12:34;11.05;;;7.25;;
52786;SDS011;38661;53.152;5.846;2024-02-26T01:15:03;11.05;;;7.63;;
52786;SDS011;38661;53.152;5.846;2024-02-26T01:17:29;9.40;;;6.88;;
52786;SDS011;38661;53.152;5.846;2024-02-26T01:19:55;9.25;;;7.18;;
52786;SDS011;38661;53.152;5.846;2024-02-26T01:22:21;11.88;;;7.85;;
52786;SDS011;38661;53.152;5.846;2024-02-26T01:24:46;9.43;;;7.55;;
52786;SDS011;38661;53.152;5.846;2024-02-26T01:27:12;10.45;;;7.22;;
52786;SDS011;38661;53.152;5.846;2024-02-26T01:29:40;10.57;;;7.28;;
52786;SDS011;38661;53.152;5.846;2024-02-26T01:32:05;9.73;;;7.03;;
52786;SDS011;38661;53.152;5.846;2024-02-26T01:34:31;10.00;;;6.55;;
52786;SDS011;38661;53.152;5.846;2024-02-26T01:37:01;8.57;;;6.78;;
52786;SDS011;38661;53.152;5.846;2024-02-26T01:39:27;9.90;;;6.43;;
52786;SDS011;38661;53.152;5.846;2024-02-26T01:41:55;8.82;;;6.78;;
52786;SDS011;38661;53.152;5.846;2024-02-26T01:44:21;9.23;;;6.90;;
52786;SDS011;38661;53.152;5.846;2024-02-26T01:46:46;8.90;;;6.35;;
52786;SDS011;38661;53.152;5.846;2024-02-26T01:49:13;10.43;;;7.13;;
52786;SDS011;38661;53.152;5.846;2024-02-26T01:51:40;10.68;;;7.80;;
52786;SDS011;38661;53.152;5.846;2024-02-26T01:54:08;8.88;;;6.95;;
52786;SDS011;38661;53.152;5.846;2024-02-26T01:56:35;8.95;;;6.10;;
52786;SDS011;38661;53.152;5.846;2024-02-26T01:59:02;9.52;;;6.28;;
52786;SDS011;38661;53.152;5.846;2024-02-26T02:01:31;11.50;;;6.47;;
52786;SDS011;38661;53.152;5.846;2024-02-26T02:03:58;7.93;;;6.05;;
52786;SDS011;38661;53.152;5.846;2024-02-26T02:06:24;11.57;;;6.97;;
52786;SDS011;38661;53.152;5.846;2024-02-26T02:08:52;10.30;;;7.03;;
52786;SDS011;38661;53.152;5.846;2024-02-26T02:11:18;9.55;;;6.43;;
52786;SDS011;38661;53.152;5.846;2024-02-26T02:13:44;9.57;;;6.68;;
52786;SDS011;38661;53.152;5.846;2024-02-26T02:16:10;8.98;;;6.88;;
52786;SDS011;38661;53.152;5.846;2024-02-26T02:18:36;8.98;;;6.20;;
52786;SDS011;38661;53.152;5.846;2024-02-26T02:21:02;10.35;;;6.60;;
52786;SDS011;38661;53.152;5.846;2024-02-26T02:23:28;10.40;;;5.97;;
52786;SDS011;38661;53.152;5.846;2024-02-26T02:25:54;10.30;;;6.45;;
52786;SDS011;38661;53.152;5.846;2024-02-26T02:28:21;9.60;;;7.00;;
52786;SDS011;38661;53.152;5.846;2024-02-26T02:30:47;8.38;;;6.55;;
52786;SDS011;38661;53.152;5.846;2024-02-26T02:33:14;10.32;;;7.07;;
52786;SDS011;38661;53.152;5.846;2024-02-26T02:35:40;7.72;;;6.55;;
52786;SDS011;38661;53.152;5.846;2024-02-26T02:38:06;10.43;;;6.47;;
52786;SDS011;38661;53.152;5.846;2024-02-26T02:40:32;9.07;;;6.55;;
52786;SDS011;38661;53.152;5.846;2024-02-26T02:42:58;11.75;;;6.45;;
52786;SDS011;38661;53.152;5.846;2024-02-26T02:45:25;9.25;;;6.03;;
52786;SDS011;38661;53.152;5.846;2024-02-26T02:47:50;8.40;;;6.35;;
52786;SDS011;38661;53.152;5.846;2024-02-26T02:50:16;7.90;;;6.22;;
52786;SDS011;38661;53.152;5.846;2024-02-26T02:52:42;11.32;;;6.00;;
52786;SDS011;38661;53.152;5.846;2024-02-26T02:55:08;7.60;;;6.03;;
52786;SDS011;38661;53.152;5.846;2024-02-26T02:57:33;9.23;;;5.93;;
52786;SDS011;38661;53.152;5.846;2024-02-26T02:59:59;8.10;;;6.32;;
52786;SDS011;38661;53.152;5.846;2024-02-26T03:02:25;7.70;;;5.68;;
52786;SDS011;38661;53.152;5.846;2024-02-26T03:04:51;8.32;;;6.05;;
52786;SDS011;38661;53.152;5.846;2024-02-26T03:07:17;8.77;;;6.13;;
52786;SDS011;38661;53.152;5.846;2024-02-26T03:09:42;10.10;;;6.10;;
52786;SDS011;38661;53.152;5.846;2024-02-26T03:12:08;8.57;;;6.50;;
52786;SDS011;38661;53.152;5.846;2024-02-26T03:14:34;6.60;;;5.28;;
52786;SDS011;38661;53.152;5.846;2024-02-26T03:16:59;8.25;;;5.50;;
52786;SDS011;38661;53.152;5.846;2024-02-26T03:19:25;9.25;;;5.85;;
52786;SDS011;38661;53.152;5.846;2024-02-26T03:21:51;7.57;;;6.10;;
52786;SDS011;38661;53.152;5.846;2024-02-26T03:24:16;7.20;;;5.75;;
52786;SDS011;38661;53.152;5.846;2024-02-26T03:26:42;9.77;;;5.57;;
52786;SDS011;38661;53.152;5.846;2024-02-26T03:29:08;9.80;;;5.80;;
52786;SDS011;38661;53.152;5.846;2024-02-26T03:31:34;11.80;;;6.25;;
52786;SDS011;38661;53.152;5.846;2024-02-26T03:33:59;7.93;;;5.70;;
52786;SDS011;38661;53.152;5.846;2024-02-26T03:36:25;8.48;;;5.68;;
52786;SDS011;38661;53.152;5.846;2024-02-26T03:38:51;7.80;;;5.63;;
52786;SDS011;38661;53.152;5.846;2024-02-26T03:41:16;7.25;;;5.50;;
52786;SDS011;38661;53.152;5.846;2024-02-26T03:43:42;10.10;;;5.68;;
52786;SDS011;38661;53.152;5.846;2024-02-26T03:46:08;8.02;;;5.65;;
52786;SDS011;38661;53.152;5.846;2024-02-26T03:48:38;13.02;;;8.65;;
52786;SDS011;38661;53.152;5.846;2024-02-26T03:51:08;9.07;;;6.90;;
52786;SDS011;38661;53.152;5.846;2024-02-26T03:53:35;9.00;;;6.30;;
52786;SDS011;38661;53.152;5.846;2024-02-26T03:56:05;10.15;;;5.50;;
52786;SDS011;38661;53.152;5.846;2024-02-26T03:58:31;7.78;;;5.53;;
52786;SDS011;38661;53.152;5.846;2024-02-26T04:00:58;7.63;;;6.00;;
52786;SDS011;38661;53.152;5.846;2024-02-26T04:03:24;8.20;;;5.85;;
52786;SDS011;38661;53.152;5.846;2024-02-26T04:05:50;8.77;;;5.95;;
52786;SDS011;38661;53.152;5.846;2024-02-26T04:08:16;9.98;;;6.00;;
52786;SDS011;38661;53.152;5.846;2024-02-26T04:10:42;10.63;;;5.38;;
52786;SDS011;38661;53.152;5.846;2024-02-26T04:13:08;10.25;;;5.75;;
52786;SDS011;38661;53.152;5.846;2024-02-26T04:15:33;7.90;;;5.03;;
52786;SDS011;38661;53.152;5.846;2024-02-26T04:17:59;9.10;;;5.40;;
52786;SDS011;38661;53.152;5.846;2024-02-26T04:20:25;9.30;;;6.32;;
52786;SDS011;38661;53.152;5.846;2024-02-26T04:22:51;9.82;;;5.80;;
52786;SDS011;38661;53.152;5.846;2024-02-26T04:25:18;10.02;;;5.55;;
52786;SDS011;38661;53.152;5.846;2024-02-26T04:27:43;10.63;;;5.85;;
52786;SDS011;38661;53.152;5.846;2024-02-26T04:30:09;7.47;;;5.30;;
52786;SDS011;38661;53.152;5.846;2024-02-26T04:32:35;8.88;;;5.15;;
52786;SDS011;38661;53.152;5.846;2024-02-26T04:35:02;13.95;;;6.82;;
52786;SDS011;38661;53.152;5.846;2024-02-26T04:37:28;9.18;;;6.13;;
52786;SDS011;38661;53.152;5.846;2024-02-26T04:39:59;8.05;;;5.78;;
52786;SDS011;38661;53.152;5.846;2024-02-26T04:42:26;9.38;;;6.07;;
52786;SDS011;38661;53.152;5.846;2024-02-26T04:44:52;8.40;;;5.78;;
52786;SDS011;38661;53.152;5.846;2024-02-26T04:47:19;11.68;;;6.20;;
52786;SDS011;38661;53.152;5.846;2024-02-26T04:49:47;9.30;;;5.28;;
52786;SDS011;38661;53.152;5.846;2024-02-26T04:52:14;9.30;;;5.90;;
52786;SDS011;38661;53.152;5.846;2024-02-26T04:54:40;8.50;;;5.75;;
52786;SDS011;38661;53.152;5.846;2024-02-26T04:57:05;8.27;;;5.18;;
52786;SDS011;38661;53.152;5.846;2024-02-26T04:59:31;7.90;;;5.15;;
52786;SDS011;38661;53.152;5.846;2024-02-26T05:01:57;9.60;;;6.03;;
52786;SDS011;38661;53.152;5.846;2024-02-26T05:04:22;9.45;;;5.70;;
52786;SDS011;38661;53.152;5.846;2024-02-26T05:06:48;9.02;;;5.03;;
52786;SDS011;38661;53.152;5.846;2024-02-26T05:09:14;9.57;;;6.10;;
52786;SDS011;38661;53.152;5.846;2024-02-26T05:11:39;7.43;;;5.15;;
52786;SDS011;38661;53.152;5.846;2024-02-26T05:14:05;7.68;;;5.28;;
52786;SDS011;38661;53.152;5.846;2024-02-26T05:16:31;9.00;;;5.57;;
52786;SDS011;38661;53.152;5.846;2024-02-26T05:18:57;8.05;;;5.57;;
52786;SDS011;38661;53.152;5.846;2024-02-26T05:21:23;6.43;;;4.68;;
52786;SDS011;38661;53.152;5.846;2024-02-26T05:23:48;7.60;;;4.57;;
52786;SDS011;38661;53.152;5.846;2024-02-26T05:26:23;6.20;;;4.40;;
52786;SDS011;38661;53.152;5.846;2024-02-26T05:28:49;12.20;;;5.15;;
52786;SDS011;38661;53.152;5.846;2024-02-26T05:31:15;6.47;;;4.47;;
52786;SDS011;38661;53.152;5.846;2024-02-26T05:33:42;7.10;;;4.00;;
52786;SDS011;38661;53.152;5.846;2024-02-26T05:36:07;6.55;;;4.70;;
52786;SDS011;38661;53.152;5.846;2024-02-26T05:38:33;5.93;;;3.95;;
52786;SDS011;38661;53.152;5.846;2024-02-26T05:40:59;9.98;;;4.70;;
52786;SDS011;38661;53.152;5.846;2024-02-26T05:43:25;7.40;;;3.88;;
52786;SDS011;38661;53.152;5.846;2024-02-26T05:45:51;6.93;;;4.40;;
52786;SDS011;38661;53.152;5.846;2024-02-26T05:48:17;11.38;;;4.43;;
52786;SDS011;38661;53.152;5.846;2024-02-26T05:50:44;6.78;;;4.35;;
52786;SDS011;38661;53.152;5.846;2024-02-26T05:53:10;5.05;;;3.42;;
52786;SDS011;38661;53.152;5.846;2024-02-26T05:55:36;6.65;;;4.20;;
52786;SDS011;38661;53.152;5.846;2024-02-26T05:58:02;5.55;;;3.67;;
52786;SDS011;38661;53.152;5.846;2024-02-26T06:00:28;6.28;;;4.13;;
52786;SDS011;38661;53.152;5.846;2024-02-26T06:02:54;6.07;;;3.88;;
52786;SDS011;38661;53.152;5.846;2024-02-26T06:05:19;6.50;;;3.80;;
52786;SDS011;38661;53.152;5.846;2024-02-26T06:07:45;4.25;;;3.17;;
52786;SDS011;38661;53.152;5.846;2024-02-26T06:10:11;4.00;;;3.17;;
52786;SDS011;38661;53.152;5.846;2024-02-26T06:12:38;6.55;;;3.42;;
52786;SDS011;38661;53.152;5.846;2024-02-26T06:15:05;5.07;;;3.22;;
52786;SDS011;38661;53.152;5.846;2024-02-26T06:17:31;4.68;;;3.22;;
52786;SDS011;38661;53.152;5.846;2024-02-26T06:19:57;3.92;;;3.10;;
52786;SDS011;38661;53.152;5.846;2024-02-26T06:22:24;5.20;;;2.65;;
52786;SDS011;38661;53.152;5.846;2024-02-26T06:24:50;3.03;;;2.53;;
52786;SDS011;38661;53.152;5.846;2024-02-26T06:27:16;3.50;;;2.63;;
52786;SDS011;38661;53.152;5.846;2024-02-26T06:29:41;3.28;;;2.35;;
52786;SDS011;38661;53.152;5.846;2024-02-26T06:32:07;2.90;;;2.10;;
52786;SDS011;38661;53.152;5.846;2024-02-26T06:34:33;6.40;;;2.92;;
52786;SDS011;38661;53.152;5.846;2024-02-26T06:36:58;4.07;;;2.38;;
52786;SDS011;38661;53.152;5.846;2024-02-26T06:39:24;4.07;;;2.33;;
52786;SDS011;38661;53.152;5.846;2024-02-26T06:41:50;4.22;;;2.15;;
52786;SDS011;38661;53.152;5.846;2024-02-26T06:44:15;3.40;;;2.20;;
52786;SDS011;38661;53.152;5.846;2024-02-26T06:46:41;4.90;;;2.45;;
52786;SDS011;38661;53.152;5.846;2024-02-26T06:49:07;5.03;;;2.55;;
52786;SDS011;38661;53.152;5.846;2024-02-26T06:51:32;6.53;;;2.50;;
52786;SDS011;38661;53.152;5.846;2024-02-26T06:53:58;9.00;;;2.40;;
52786;SDS011;38661;53.152;5.846;2024-02-26T06:56:23;6.57;;;2.10;;
52786;SDS011;38661;53.152;5.846;2024-02-26T06:58:49;4.03;;;2.35;;
52786;SDS011;38661;53.152;5.846;2024-02-26T07:01:15;4.22;;;1.88;;
52786;SDS011;38661;53.152;5.846;2024-02-26T07:03:41;4.32;;;2.45;;
52786;SDS011;38661;53.152;5.846;2024-02-26T07:06:06;4.38;;;2.45;;
52786;SDS011;38661;53.152;5.846;2024-02-26T07:08:33;3.35;;;2.35;;
52786;SDS011;38661;53.152;5.846;2024-02-26T07:10:59;3.08;;;2.00;;
52786;SDS011;38661;53.152;5.846;2024-02-26T07:13:25;4.20;;;2.20;;
52786;SDS011;38661;53.152;5.846;2024-02-26T07:15:50;4.50;;;2.42;;
52786;SDS011;38661;53.152;5.846;2024-02-26T07:18:16;5.00;;;2.55;;
52786;SDS011;38661;53.152;5.846;2024-02-26T07:20:42;4.80;;;2.50;;
52786;SDS011;38661;53.152;5.846;2024-02-26T07:23:08;3.45;;;2.30;;
52786;SDS011;38661;53.152;5.846;2024-02-26T07:25:34;4.97;;;2.80;;
52786;SDS011;38661;53.152;5.846;2024-02-26T07:27:59;6.07;;;2.35;;
52786;SDS011;38661;53.152;5.846;2024-02-26T07:30:25;4.57;;;2.63;;
52786;SDS011;38661;53.152;5.846;2024-02-26T07:32:51;4.88;;;2.60;;
52786;SDS011;38661;53.152;5.846;2024-02-26T07:35:16;6.35;;;2.40;;
52786;SDS011;38661;53.152;5.846;2024-02-26T07:37:42;3.97;;;2.30;;
52786;SDS011;38661;53.152;5.846;2024-02-26T07:40:09;3.10;;;2.30;;
52786;SDS011;38661;53.152;5.846;2024-02-26T07:42:35;4.85;;;2.50;;
52786;SDS011;38661;53.152;5.846;2024-02-26T07:45:01;5.53;;;2.30;;
52786;SDS011;38661;53.152;5.846;2024-02-26T07:47:27;5.78;;;2.58;;
52786;SDS011;38661;53.152;5.846;2024-02-26T07:49:54;3.38;;;1.80;;
52786;SDS011;38661;53.152;5.846;2024-02-26T07:52:20;3.67;;;2.25;;
52786;SDS011;38661;53.152;5.846;2024-02-26T07:54:46;5.07;;;2.28;;
52786;SDS011;38661;53.152;5.846;2024-02-26T07:57:11;2.88;;;2.17;;
52786;SDS011;38661;53.152;5.846;2024-02-26T07:59:40;5.72;;;2.50;;
52786;SDS011;38661;53.152;5.846;2024-02-26T08:02:06;6.65;;;2.50;;
52786;SDS011;38661;53.152;5.846;2024-02-26T08:04:31;3.88;;;2.17;;
52786;SDS011;38661;53.152;5.846;2024-02-26T08:06:57;3.05;;;2.15;;
52786;SDS011;38661;53.152;5.846;2024-02-26T08:09:23;6.60;;;2.60;;
52786;SDS011;38661;53.152;5.846;2024-02-26T08:11:48;4.32;;;2.55;;
52786;SDS011;38661;53.152;5.846;2024-02-26T08:14:14;5.55;;;2.85;;
52786;SDS011;38661;53.152;5.846;2024-02-26T08:16:40;6.22;;;2.67;;
52786;SDS011;38661;53.152;5.846;2024-02-26T08:19:05;4.72;;;2.78;;
52786;SDS011;38661;53.152;5.846;2024-02-26T08:21:31;5.95;;;2.58;;
52786;SDS011;38661;53.152;5.846;2024-02-26T08:23:57;5.45;;;2.85;;
52786;SDS011;38661;53.152;5.846;2024-02-26T08:26:22;4.30;;;2.35;;
52786;SDS011;38661;53.152;5.846;2024-02-26T08:28:49;4.70;;;2.42;;
52786;SDS011;38661;53.152;5.846;2024-02-26T08:31:16;4.07;;;2.75;;
52786;SDS011;38661;53.152;5.846;2024-02-26T08:33:42;5.75;;;2.63;;
52786;SDS011;38661;53.152;5.846;2024-02-26T08:36:08;5.18;;;2.58;;
52786;SDS011;38661;53.152;5.846;2024-02-26T08:38:34;4.80;;;3.00;;
52786;SDS011;38661;53.152;5.846;2024-02-26T08:41:04;8.18;;;3.10;;
52786;SDS011;38661;53.152;5.846;2024-02-26T08:43:30;4.70;;;3.05;;
52786;SDS011;38661;53.152;5.846;2024-02-26T08:45:56;5.45;;;2.90;;
52786;SDS011;38661;53.152;5.846;2024-02-26T08:48:22;7.40;;;2.90;;
52786;SDS011;38661;53.152;5.846;2024-02-26T08:50:48;7.53;;;3.20;;
52786;SDS011;38661;53.152;5.846;2024-02-26T08:53:14;5.05;;;2.60;;
52786;SDS011;38661;53.152;5.846;2024-02-26T08:55:40;5.75;;;2.30;;
52786;SDS011;38661;53.152;5.846;2024-02-26T08:58:05;6.70;;;3.03;;
52786;SDS011;38661;53.152;5.846;2024-02-26T09:00:31;6.13;;;2.33;;
52786;SDS011;38661;53.152;5.846;2024-02-26T09:02:56;4.63;;;2.45;;
52786;SDS011;38661;53.152;5.846;2024-02-26T09:05:22;7.20;;;3.72;;
52786;SDS011;38661;53.152;5.846;2024-02-26T09:07:48;5.72;;;2.22;;
52786;SDS011;38661;53.152;5.846;2024-02-26T09:10:14;5.43;;;2.47;;
52786;SDS011;38661;53.152;5.846;2024-02-26T09:12:39;6.00;;;2.17;;
52786;SDS011;38661;53.152;5.846;2024-02-26T09:15:06;6.05;;;2.20;;
52786;SDS011;38661;53.152;5.846;2024-02-26T09:17:32;4.72;;;2.70;;
52786;SDS011;38661;53.152;5.846;2024-02-26T09:19:58;4.13;;;2.00;;
52786;SDS011;38661;53.152;5.846;2024-02-26T09:22:24;4.75;;;2.20;;
52786;SDS011;38661;53.152;5.846;2024-02-26T09:24:49;3.35;;;1.88;;
52786;SDS011;38661;53.152;5.846;2024-02-26T09:27:17;7.07;;;2.10;;
52786;SDS011;38661;53.152;5.846;2024-02-26T09:29:42;4.70;;;2.00;;
52786;SDS011;38661;53.152;5.846;2024-02-26T09:32:08;6.60;;;2.30;;
52786;SDS011;38661;53.152;5.846;2024-02-26T09:34:34;5.30;;;2.65;;
52786;SDS011;38661;53.152;5.846;2024-02-26T09:37:00;4.82;;;3.15;;
52786;SDS011;38661;53.152;5.846;2024-02-26T09:39:26;4.55;;;2.22;;
52786;SDS011;38661;53.152;5.846;2024-02-26T09:41:53;6.00;;;2.75;;
52786;SDS011;38661;53.152;5.846;2024-02-26T09:44:19;7.88;;;2.65;;
52786;SDS011;38661;53.152;5.846;2024-02-26T09:46:47;7.75;;;2.85;;
52786;SDS011;38661;53.152;5.846;2024-02-26T09:49:16;6.65;;;2.67;;
52786;SDS011;38661;53.152;5.846;2024-02-26T09:51:43;3.65;;;2.30;;
52786;SDS011;38661;53.152;5.846;2024-02-26T09:54:09;4.28;;;2.15;;
52786;SDS011;38661;53.152;5.846;2024-02-26T09:56:36;8.38;;;2.30;;
52786;SDS011;38661;53.152;5.846;2024-02-26T09:59:05;5.35;;;3.15;;
52786;SDS011;38661;53.152;5.846;2024-02-26T10:01:35;3.60;;;2.35;;
52786;SDS011;38661;53.152;5.846;2024-02-26T10:04:03;4.72;;;2.15;;
52786;SDS011;38661;53.152;5.846;2024-02-26T10:06:29;4.13;;;2.88;;
52786;SDS011;38661;53.152;5.846;2024-02-26T10:08:56;4.18;;;2.08;;
52786;SDS011;38661;53.152;5.846;2024-02-26T10:11:23;6.38;;;2.85;;
52786;SDS011;38661;53.152;5.846;2024-02-26T10:13:50;5.15;;;2.97;;
52786;SDS011;38661;53.152;5.846;2024-02-26T10:16:16;2.67;;;1.70;;
52786;SDS011;38661;53.152;5.846;2024-02-26T10:18:48;4.55;;;2.13;;
52786;SDS011;38661;53.152;5.846;2024-02-26T10:21:18;6.80;;;2.30;;
52786;SDS011;38661;53.152;5.846;2024-02-26T10:23:47;5.47;;;2.17;;
52786;SDS011;38661;53.152;5.846;2024-02-26T10:26:14;2.63;;;1.60;;
52786;SDS011;38661;53.152;5.846;2024-02-26T10:28:44;3.22;;;1.90;;
52786;SDS011;38661;53.152;5.846;2024-02-26T10:31:11;3.72;;;2.58;;
52786;SDS011;38661;53.152;5.846;2024-02-26T10:33:38;4.75;;;2.35;;
52786;SDS011;38661;53.152;5.846;2024-02-26T10:36:04;5.00;;;2.65;;
52786;SDS011;38661;53.152;5.846;2024-02-26T10:38:31;3.78;;;1.90;;
52786;SDS011;38661;53.152;5.846;2024-02-26T10:40:58;5.43;;;2.40;;
52786;SDS011;38661;53.152;5.846;2024-02-26T10:43:25;4.55;;;2.30;;
52786;SDS011;38661;53.152;5.846;2024-02-26T10:45:50;3.92;;;2.22;;
52786;SDS011;38661;53.152;5.846;2024-02-26T10:48:16;3.67;;;2.15;;
52786;SDS011;38661;53.152;5.846;2024-02-26T10:50:43;5.57;;;2.53;;
52786;SDS011;38661;53.152;5.846;2024-02-26T10:53:30;2.90;;;1.50;;
52786;SDS011;38661;53.152;5.846;2024-02-26T10:56:03;3.58;;;2.33;;
52786;SDS011;38661;53.152;5.846;2024-02-26T10:58:32;3.35;;;1.50;;
52786;SDS011;38661;53.152;5.846;2024-02-26T11:00:59;3.85;;;2.50;;
52786;SDS011;38661;53.152;5.846;2024-02-26T11:03:25;4.72;;;2.10;;
52786;SDS011;38661;53.152;5.846;2024-02-26T11:05:51;5.05;;;2.38;;
52786;SDS011;38661;53.152;5.846;2024-02-26T11:08:18;3.67;;;2.33;;
52786;SDS011;38661;53.152;5.846;2024-02-26T11:10:50;6.25;;;2.90;;
52786;SDS011;38661;53.152;5.846;2024-02-26T11:13:18;4.07;;;2.15;;
52786;SDS011;38661;53.152;5.846;2024-02-26T11:15:47;5.88;;;2.45;;
52786;SDS011;38661;53.152;5.846;2024-02-26T11:18:17;6.18;;;2.42;;
52786;SDS011;38661;53.152;5.846;2024-02-26T11:20:44;5.82;;;2.53;;
52786;SDS011;38661;53.152;5.846;2024-02-26T11:23:11;5.68;;;2.80;;
52786;SDS011;38661;53.152;5.846;2024-02-26T11:25:37;4.70;;;3.00;;
52786;SDS011;38661;53.152;5.846;2024-02-26T11:28:05;4.57;;;3.00;;
52786;SDS011;38661;53.152;5.846;2024-02-26T11:30:36;6.07;;;3.20;;
52786;SDS011;38661;53.152;5.846;2024-02-26T11:33:09;4.10;;;3.20;;
52786;SDS011;38661;53.152;5.846;2024-02-26T11:35:36;5.25;;;2.80;;
52786;SDS011;38661;53.152;5.846;2024-02-26T11:38:02;8.90;;;3.85;;
52786;SDS011;38661;53.152;5.846;2024-02-26T11:40:28;7.57;;;3.42;;
52786;SDS011;38661;53.152;5.846;2024-02-26T11:42:56;9.10;;;3.97;;
52786;SDS011;38661;53.152;5.846;2024-02-26T11:48:15;9.18;;;3.92;;
52786;SDS011;38661;53.152;5.846;2024-02-26T11:50:48;8.95;;;3.95;;
52786;SDS011;38661;53.152;5.846;2024-02-26T11:58:41;9.68;;;4.28;;
52786;SDS011;38661;53.152;5.846;2024-02-26T12:04:26;5.25;;;3.13;;
52786;SDS011;38661;53.152;5.846;2024-02-26T12:06:58;9.10;;;3.05;;
52786;SDS011;38661;53.152;5.846;2024-02-26T12:12:05;5.40;;;3.35;;
52786;SDS011;38661;53.152;5.846;2024-02-26T12:14:33;4.82;;;3.35;;
52786;SDS011;38661;53.152;5.846;2024-02-26T12:17:02;6.63;;;3.45;;
52786;SDS011;38661;53.152;5.846;2024-02-26T12:19:31;5.78;;;3.45;;
52786;SDS011;38661;53.152;5.846;2024-02-26T12:21:57;6.55;;;3.50;;
52786;SDS011;38661;53.152;5.846;2024-02-26T12:24:22;7.13;;;3.92;;
52786;SDS011;38661;53.152;5.846;2024-02-26T12:26:48;9.32;;;4.10;;
52786;SDS011;38661;53.152;5.846;2024-02-26T12:29:14;7.60;;;3.83;;
52786;SDS011;38661;53.152;5.846;2024-02-26T12:31:40;9.20;;;3.63;;
52786;SDS011;38661;53.152;5.846;2024-02-26T12:34:06;9.30;;;3.55;;
52786;SDS011;38661;53.152;5.846;2024-02-26T12:36:35;7.32;;;3.55;;
52786;SDS011;38661;53.152;5.846;2024-02-26T12:39:02;6.40;;;4.00;;
52786;SDS011;38661;53.152;5.846;2024-02-26T12:41:30;6.47;;;3.50;;
52786;SDS011;38661;53.152;5.846;2024-02-26T12:43:57;7.65;;;3.75;;
52786;SDS011;38661;53.152;5.846;2024-02-26T12:46:23;7.32;;;4.05;;
52786;SDS011;38661;53.152;5.846;2024-02-26T12:48:49;13.13;;;5.20;;
52786;SDS011;38661;53.152;5.846;2024-02-26T12:51:15;9.85;;;4.30;;
52786;SDS011;38661;53.152;5.846;2024-02-26T12:53:42;11.23;;;4.07;;
52786;SDS011;38661;53.152;5.846;2024-02-26T12:56:10;6.65;;;4.18;;
52786;SDS011;38661;53.152;5.846;2024-02-26T12:58:38;6.70;;;3.88;;
52786;SDS011;38661;53.152;5.846;2024-02-26T13:01:05;8.00;;;4.50;;
52786;SDS011;38661;53.152;5.846;2024-02-26T13:03:32;8.80;;;4.35;;
52786;SDS011;38661;53.152;5.846;2024-02-26T13:05:59;6.47;;;3.55;;
52786;SDS011;38661;53.152;5.846;2024-02-26T13:08:26;5.63;;;3.25;;
52786;SDS011;38661;53.152;5.846;2024-02-26T13:10:52;9.35;;;3.63;;
52786;SDS011;38661;53.152;5.846;2024-02-26T13:13:19;7.82;;;3.50;;
52786;SDS011;38661;53.152;5.846;2024-02-26T13:15:45;9.50;;;3.97;;
52786;SDS011;38661;53.152;5.846;2024-02-26T13:18:12;8.45;;;3.55;;
52786;SDS011;38661;53.152;5.846;2024-02-26T13:20:39;6.35;;;3.65;;
52786;SDS011;38661;53.152;5.846;2024-02-26T13:23:12;9.05;;;3.70;;
52786;SDS011;38661;53.152;5.846;2024-02-26T13:25:38;7.85;;;4.03;;
52786;SDS011;38661;53.152;5.846;2024-02-26T13:28:14;8.25;;;4.32;;
52786;SDS011;38661;53.152;5.846;2024-02-26T13:30:56;8.60;;;3.70;;
52786;SDS011;38661;53.152;5.846;2024-02-26T13:33:23;6.75;;;3.70;;
52786;SDS011;38661;53.152;5.846;2024-02-26T13:35:50;6.55;;;3.97;;
52786;SDS011;38661;53.152;5.846;2024-02-26T13:38:16;6.80;;;3.88;;
52786;SDS011;38661;53.152;5.846;2024-02-26T13:40:42;9.10;;;5.05;;
52786;SDS011;38661;53.152;5.846;2024-02-26T13:43:08;7.57;;;3.30;;
52786;SDS011;38661;53.152;5.846;2024-02-26T13:45:34;9.63;;;4.25;;
52786;SDS011;38661;53.152;5.846;2024-02-26T13:48:18;7.95;;;3.60;;
52786;SDS011;38661;53.152;5.846;2024-02-26T13:50:44;6.88;;;3.15;;
52786;SDS011;38661;53.152;5.846;2024-02-26T13:53:10;5.80;;;3.22;;
52786;SDS011;38661;53.152;5.846;2024-02-26T13:55:37;5.65;;;3.17;;
52786;SDS011;38661;53.152;5.846;2024-02-26T13:58:04;6.45;;;3.05;;
52786;SDS011;38661;53.152;5.846;2024-02-26T14:00:32;4.95;;;2.58;;
52786;SDS011;38661;53.152;5.846;2024-02-26T14:03:02;5.53;;;2.28;;
52786;SDS011;38661;53.152;5.846;2024-02-26T14:05:28;3.72;;;2.63;;
52786;SDS011;38661;53.152;5.846;2024-02-26T14:07:55;6.70;;;3.10;;
52786;SDS011;38661;53.152;5.846;2024-02-26T14:10:20;5.35;;;3.67;;
52786;SDS011;38661;53.152;5.846;2024-02-26T14:12:46;6.25;;;3.00;;
52786;SDS011;38661;53.152;5.846;2024-02-26T14:15:12;7.30;;;3.20;;
52786;SDS011;38661;53.152;5.846;2024-02-26T14:17:37;4.32;;;2.75;;
52786;SDS011;38661;53.152;5.846;2024-02-26T14:20:03;6.18;;;3.03;;
52786;SDS011;38661;53.152;5.846;2024-02-26T14:22:29;7.90;;;3.33;;
52786;SDS011;38661;53.152;5.846;2024-02-26T14:24:58;4.68;;;2.70;;
52786;SDS011;38661;53.152;5.846;2024-02-26T14:27:24;5.75;;;3.20;;
52786;SDS011;38661;53.152;5.846;2024-02-26T14:29:50;5.32;;;3.25;;
52786;SDS011;38661;53.152;5.846;2024-02-26T14:32:16;10.75;;;3.28;;
52786;SDS011;38661;53.152;5.846;2024-02-26T14:34:42;4.28;;;3.47;;
52786;SDS011;38661;53.152;5.846;2024-02-26T14:37:08;6.00;;;2.85;;
52786;SDS011;38661;53.152;5.846;2024-02-26T14:39:34;7.97;;;3.17;;
52786;SDS011;38661;53.152;5.846;2024-02-26T14:42:00;3.65;;;2.65;;
52786;SDS011;38661;53.152;5.846;2024-02-26T14:44:26;9.52;;;2.60;;
52786;SDS011;38661;53.152;5.846;2024-02-26T14:46:52;9.05;;;2.40;;
52786;SDS011;38661;53.152;5.846;2024-02-26T14:49:18;4.63;;;2.55;;
52786;SDS011;38661;53.152;5.846;2024-02-26T14:51:44;4.90;;;2.50;;
52786;SDS011;38661;53.152;5.846;2024-02-26T14:54:13;5.53;;;2.63;;
52786;SDS011;38661;53.152;5.846;2024-02-26T14:56:39;5.25;;;2.33;;